sensor_id;sensor_type;location;lat;lon;timestamp;P1;durP1;ratioP1;P2;durP2;ratioP2
8279;SDS011;8335;42.646;23.380;2023-06-14T00:01:47;12.13;;;8.70;;
8279;SDS011;8335;42.646;23.380;2023-06-14T00:04:14;12.57;;;8.70;;
8279;SDS011;8335;42.646;23.380;2023-06-14T00:06:43;11.43;;;8.68;;
8279;SDS011;8335;42.646;23.380;2023-06-14T00:09:10;14.68;;;8.13;;
8279;SDS011;8335;42.646;23.380;2023-06-14T00:11:38;11.63;;;8.65;;
8279;SDS011;8335;42.646;23.380;2023-06-14T00:14:06;15.57;;;8.60;;
8279;SDS011;8335;42.646;23.380;2023-06-14T00:16:33;11.55;;;7.88;;
8279;SDS011;8335;42.646;23.380;2023-06-14T00:19:00;13.98;;;7.53;;
8279;SDS011;8335;42.646;23.380;2023-06-14T00:21:29;13.38;;;8.25;;
8279;SDS011;8335;42.646;23.380;2023-06-14T00:23:57;13.20;;;7.90;;
8279;SDS011;8335;42.646;23.380;2023-06-14T00:26:24;11.18;;;7.30;;
8279;SDS011;8335;42.646;23.380;2023-06-14T00:28:51;11.07;;;7.13;;
8279;SDS011;8335;42.646;23.380;2023-06-14T00:31:19;9.93;;;7.25;;
8279;SDS011;8335;42.646;23.380;2023-06-14T00:33:46;9.88;;;6.85;;
8279;SDS011;8335;42.646;23.380;2023-06-14T00:36:13;12.45;;;7.45;;
8279;SDS011;8335;42.646;23.380;2023-06-14T00:38:40;12.93;;;7.60;;
8279;SDS011;8335;42.646;23.380;2023-06-14T00:41:06;9.48;;;6.75;;
8279;SDS011;8335;42.646;23.380;2023-06-14T00:43:33;10.88;;;6.50;;
8279;SDS011;8335;42.646;23.380;2023-06-14T00:46:00;8.93;;;6.70;;
8279;SDS011;8335;42.646;23.380;2023-06-14T00:48:28;9.25;;;7.20;;
8279;SDS011;8335;42.646;23.380;2023-06-14T00:50:56;10.13;;;7.72;;
8279;SDS011;8335;42.646;23.380;2023-06-14T00:53:27;10.18;;;7.45;;
8279;SDS011;8335;42.646;23.380;2023-06-14T00:55:54;8.43;;;6.95;;
8279;SDS011;8335;42.646;23.380;2023-06-14T00:58:21;11.07;;;6.93;;
8279;SDS011;8335;42.646;23.380;2023-06-14T01:00:48;8.40;;;6.13;;
8279;SDS011;8335;42.646;23.380;2023-06-14T01:03:16;12.38;;;8.05;;
8279;SDS011;8335;42.646;23.380;2023-06-14T01:05:49;12.13;;;9.00;;
8279;SDS011;8335;42.646;23.380;2023-06-14T01:08:22;14.77;;;8.95;;
8279;SDS011;8335;42.646;23.380;2023-06-14T01:10:56;11.57;;;7.45;;
8279;SDS011;8335;42.646;23.380;2023-06-14T01:13:32;11.15;;;8.20;;
8279;SDS011;8335;42.646;23.380;2023-06-14T01:16:01;9.60;;;8.13;;
8279;SDS011;8335;42.646;23.380;2023-06-14T01:18:28;11.90;;;8.13;;
8279;SDS011;8335;42.646;23.380;2023-06-14T01:20:57;11.80;;;9.20;;
8279;SDS011;8335;42.646;23.380;2023-06-14T01:23:25;16.15;;;8.95;;
8279;SDS011;8335;42.646;23.380;2023-06-14T01:25:58;12.07;;;9.00;;
8279;SDS011;8335;42.646;23.380;2023-06-14T01:28:25;12.32;;;8.40;;
8279;SDS011;8335;42.646;23.380;2023-06-14T01:30:57;11.25;;;8.15;;
8279;SDS011;8335;42.646;23.380;2023-06-14T01:33:29;10.18;;;8.43;;
8279;SDS011;8335;42.646;23.380;2023-06-14T01:35:58;14.82;;;9.30;;
8279;SDS011;8335;42.646;23.380;2023-06-14T01:38:28;11.80;;;8.57;;
8279;SDS011;8335;42.646;23.380;2023-06-14T01:40:56;15.88;;;8.95;;
8279;SDS011;8335;42.646;23.380;2023-06-14T01:43:26;12.32;;;8.93;;
8279;SDS011;8335;42.646;23.380;2023-06-14T01:45:56;11.40;;;8.57;;
8279;SDS011;8335;42.646;23.380;2023-06-14T01:48:25;12.90;;;9.20;;
8279;SDS011;8335;42.646;23.380;2023-06-14T01:50:52;13.88;;;8.63;;
8279;SDS011;8335;42.646;23.380;2023-06-14T01:53:19;12.70;;;8.77;;
8279;SDS011;8335;42.646;23.380;2023-06-14T01:55:48;14.48;;;9.20;;
8279;SDS011;8335;42.646;23.380;2023-06-14T01:58:14;11.65;;;9.15;;
8279;SDS011;8335;42.646;23.380;2023-06-14T02:00:42;11.48;;;9.43;;
8279;SDS011;8335;42.646;23.380;2023-06-14T02:03:10;12.95;;;8.55;;
8279;SDS011;8335;42.646;23.380;2023-06-14T02:05:38;11.65;;;8.68;;
8279;SDS011;8335;42.646;23.380;2023-06-14T02:08:05;12.63;;;9.02;;
8279;SDS011;8335;42.646;23.380;2023-06-14T02:10:32;15.50;;;9.80;;
8279;SDS011;8335;42.646;23.380;2023-06-14T02:13:00;13.27;;;8.95;;
8279;SDS011;8335;42.646;23.380;2023-06-14T02:15:27;12.48;;;8.85;;
8279;SDS011;8335;42.646;23.380;2023-06-14T02:17:59;10.55;;;8.45;;
8279;SDS011;8335;42.646;23.380;2023-06-14T02:20:26;13.13;;;9.23;;
8279;SDS011;8335;42.646;23.380;2023-06-14T02:22:53;12.02;;;8.43;;
8279;SDS011;8335;42.646;23.380;2023-06-14T02:25:20;11.43;;;8.38;;
8279;SDS011;8335;42.646;23.380;2023-06-14T02:27:47;10.02;;;7.47;;
8279;SDS011;8335;42.646;23.380;2023-06-14T02:30:15;10.15;;;7.50;;
8279;SDS011;8335;42.646;23.380;2023-06-14T02:32:42;10.98;;;8.07;;
8279;SDS011;8335;42.646;23.380;2023-06-14T02:35:09;12.57;;;7.65;;
8279;SDS011;8335;42.646;23.380;2023-06-14T02:37:36;9.93;;;7.50;;
8279;SDS011;8335;42.646;23.380;2023-06-14T02:40:03;11.77;;;7.85;;
8279;SDS011;8335;42.646;23.380;2023-06-14T02:42:31;9.45;;;6.95;;
8279;SDS011;8335;42.646;23.380;2023-06-14T02:44:58;11.32;;;7.47;;
8279;SDS011;8335;42.646;23.380;2023-06-14T02:47:27;9.75;;;7.10;;
8279;SDS011;8335;42.646;23.380;2023-06-14T02:49:53;10.35;;;6.45;;
8279;SDS011;8335;42.646;23.380;2023-06-14T02:52:20;9.25;;;6.35;;
8279;SDS011;8335;42.646;23.380;2023-06-14T02:54:47;10.85;;;6.88;;
8279;SDS011;8335;42.646;23.380;2023-06-14T02:57:14;10.77;;;6.68;;
8279;SDS011;8335;42.646;23.380;2023-06-14T02:59:41;10.80;;;6.55;;
8279;SDS011;8335;42.646;23.380;2023-06-14T03:02:07;8.10;;;6.25;;
8279;SDS011;8335;42.646;23.380;2023-06-14T03:04:36;7.40;;;6.10;;
8279;SDS011;8335;42.646;23.380;2023-06-14T03:07:03;13.75;;;7.10;;
8279;SDS011;8335;42.646;23.380;2023-06-14T03:09:34;9.70;;;5.78;;
8279;SDS011;8335;42.646;23.380;2023-06-14T03:12:02;8.15;;;6.93;;
8279;SDS011;8335;42.646;23.380;2023-06-14T03:14:30;8.48;;;6.43;;
8279;SDS011;8335;42.646;23.380;2023-06-14T03:16:57;7.70;;;6.43;;
8279;SDS011;8335;42.646;23.380;2023-06-14T03:19:24;10.40;;;6.47;;
8279;SDS011;8335;42.646;23.380;2023-06-14T03:21:52;7.45;;;6.47;;
8279;SDS011;8335;42.646;23.380;2023-06-14T03:24:22;10.30;;;7.07;;
8279;SDS011;8335;42.646;23.380;2023-06-14T03:26:49;7.78;;;6.82;;
8279;SDS011;8335;42.646;23.380;2023-06-14T03:29:15;12.18;;;7.18;;
8279;SDS011;8335;42.646;23.380;2023-06-14T03:31:55;10.50;;;7.30;;
8279;SDS011;8335;42.646;23.380;2023-06-14T03:34:23;8.27;;;6.60;;
8279;SDS011;8335;42.646;23.380;2023-06-14T03:36:50;18.02;;;7.38;;
8279;SDS011;8335;42.646;23.380;2023-06-14T03:39:18;11.85;;;7.07;;
8279;SDS011;8335;42.646;23.380;2023-06-14T03:41:45;10.25;;;6.85;;
8279;SDS011;8335;42.646;23.380;2023-06-14T03:44:13;10.45;;;6.35;;
8279;SDS011;8335;42.646;23.380;2023-06-14T03:46:42;8.95;;;6.68;;
8279;SDS011;8335;42.646;23.380;2023-06-14T03:49:08;9.15;;;6.60;;
8279;SDS011;8335;42.646;23.380;2023-06-14T03:51:36;10.43;;;6.68;;
8279;SDS011;8335;42.646;23.380;2023-06-14T03:54:03;10.98;;;6.88;;
8279;SDS011;8335;42.646;23.380;2023-06-14T03:56:31;9.63;;;7.20;;
8279;SDS011;8335;42.646;23.380;2023-06-14T03:58:58;10.18;;;7.57;;
8279;SDS011;8335;42.646;23.380;2023-06-14T04:01:24;8.73;;;6.70;;
8279;SDS011;8335;42.646;23.380;2023-06-14T04:03:54;9.35;;;6.43;;
8279;SDS011;8335;42.646;23.380;2023-06-14T04:06:22;10.85;;;7.15;;
8279;SDS011;8335;42.646;23.380;2023-06-14T04:08:50;11.60;;;7.50;;
8279;SDS011;8335;42.646;23.380;2023-06-14T04:11:17;9.75;;;6.85;;
8279;SDS011;8335;42.646;23.380;2023-06-14T04:13:46;11.15;;;6.53;;
8279;SDS011;8335;42.646;23.380;2023-06-14T04:16:13;9.43;;;6.82;;
8279;SDS011;8335;42.646;23.380;2023-06-14T04:18:40;10.20;;;7.45;;
8279;SDS011;8335;42.646;23.380;2023-06-14T04:21:07;9.98;;;6.75;;
8279;SDS011;8335;42.646;23.380;2023-06-14T04:23:33;9.43;;;6.72;;
8279;SDS011;8335;42.646;23.380;2023-06-14T04:26:00;11.80;;;8.45;;
8279;SDS011;8335;42.646;23.380;2023-06-14T04:28:27;13.32;;;8.20;;
8279;SDS011;8335;42.646;23.380;2023-06-14T04:30:57;11.18;;;7.63;;
8279;SDS011;8335;42.646;23.380;2023-06-14T04:33:26;8.57;;;7.05;;
8279;SDS011;8335;42.646;23.380;2023-06-14T04:35:53;11.05;;;7.65;;
8279;SDS011;8335;42.646;23.380;2023-06-14T04:38:21;12.10;;;7.43;;
8279;SDS011;8335;42.646;23.380;2023-06-14T04:40:50;11.68;;;7.13;;
8279;SDS011;8335;42.646;23.380;2023-06-14T04:43:18;11.95;;;7.47;;
8279;SDS011;8335;42.646;23.380;2023-06-14T04:45:52;11.63;;;7.57;;
8279;SDS011;8335;42.646;23.380;2023-06-14T04:48:21;11.57;;;8.10;;
8279;SDS011;8335;42.646;23.380;2023-06-14T04:50:48;11.40;;;7.90;;
8279;SDS011;8335;42.646;23.380;2023-06-14T04:53:18;13.07;;;8.35;;
8279;SDS011;8335;42.646;23.380;2023-06-14T04:55:47;11.85;;;8.10;;
8279;SDS011;8335;42.646;23.380;2023-06-14T04:58:15;11.32;;;7.82;;
8279;SDS011;8335;42.646;23.380;2023-06-14T05:00:42;9.30;;;8.10;;
8279;SDS011;8335;42.646;23.380;2023-06-14T05:03:09;9.27;;;7.80;;
8279;SDS011;8335;42.646;23.380;2023-06-14T05:05:39;10.25;;;7.97;;
8279;SDS011;8335;42.646;23.380;2023-06-14T05:08:07;15.85;;;9.98;;
8279;SDS011;8335;42.646;23.380;2023-06-14T05:10:34;16.45;;;11.63;;
8279;SDS011;8335;42.646;23.380;2023-06-14T05:13:01;15.90;;;10.68;;
8279;SDS011;8335;42.646;23.380;2023-06-14T05:15:28;16.13;;;11.02;;
8279;SDS011;8335;42.646;23.380;2023-06-14T05:17:55;16.55;;;10.20;;
8279;SDS011;8335;42.646;23.380;2023-06-14T05:20:22;19.33;;;10.82;;
8279;SDS011;8335;42.646;23.380;2023-06-14T05:22:51;12.68;;;9.70;;
8279;SDS011;8335;42.646;23.380;2023-06-14T05:25:19;19.35;;;10.88;;
8279;SDS011;8335;42.646;23.380;2023-06-14T05:27:46;15.15;;;10.90;;
8279;SDS011;8335;42.646;23.380;2023-06-14T05:30:14;14.88;;;11.30;;
8279;SDS011;8335;42.646;23.380;2023-06-14T05:32:44;17.98;;;10.57;;
8279;SDS011;8335;42.646;23.380;2023-06-14T05:35:11;13.05;;;10.23;;
8279;SDS011;8335;42.646;23.380;2023-06-14T05:37:38;13.68;;;9.80;;
8279;SDS011;8335;42.646;23.380;2023-06-14T05:40:06;11.65;;;10.18;;
8279;SDS011;8335;42.646;23.380;2023-06-14T05:42:34;14.93;;;10.30;;
8279;SDS011;8335;42.646;23.380;2023-06-14T05:45:01;15.20;;;10.40;;
8279;SDS011;8335;42.646;23.380;2023-06-14T05:47:28;17.75;;;10.73;;
8279;SDS011;8335;42.646;23.380;2023-06-14T05:49:55;17.58;;;10.25;;
8279;SDS011;8335;42.646;23.380;2023-06-14T05:52:22;16.45;;;11.38;;
8279;SDS011;8335;42.646;23.380;2023-06-14T05:54:48;16.98;;;10.88;;
8279;SDS011;8335;42.646;23.380;2023-06-14T05:57:16;16.17;;;11.57;;
8279;SDS011;8335;42.646;23.380;2023-06-14T05:59:43;18.88;;;10.75;;
8279;SDS011;8335;42.646;23.380;2023-06-14T06:02:10;12.20;;;10.20;;
8279;SDS011;8335;42.646;23.380;2023-06-14T06:04:37;14.18;;;10.80;;
8279;SDS011;8335;42.646;23.380;2023-06-14T06:07:04;15.65;;;11.10;;
8279;SDS011;8335;42.646;23.380;2023-06-14T06:09:32;15.10;;;10.90;;
8279;SDS011;8335;42.646;23.380;2023-06-14T06:11:59;15.80;;;11.38;;
8279;SDS011;8335;42.646;23.380;2023-06-14T06:14:27;18.58;;;12.43;;
8279;SDS011;8335;42.646;23.380;2023-06-14T06:16:53;15.75;;;11.13;;
8279;SDS011;8335;42.646;23.380;2023-06-14T06:19:20;18.38;;;12.00;;
8279;SDS011;8335;42.646;23.380;2023-06-14T06:21:47;14.63;;;11.38;;
8279;SDS011;8335;42.646;23.380;2023-06-14T06:24:14;20.70;;;11.88;;
8279;SDS011;8335;42.646;23.380;2023-06-14T06:26:40;16.48;;;11.57;;
8279;SDS011;8335;42.646;23.380;2023-06-14T06:29:08;14.25;;;11.48;;
8279;SDS011;8335;42.646;23.380;2023-06-14T06:31:36;13.05;;;10.55;;
8279;SDS011;8335;42.646;23.380;2023-06-14T06:34:03;20.27;;;10.93;;
8279;SDS011;8335;42.646;23.380;2023-06-14T06:36:30;14.55;;;10.68;;
8279;SDS011;8335;42.646;23.380;2023-06-14T06:38:57;19.70;;;10.88;;
8279;SDS011;8335;42.646;23.380;2023-06-14T06:41:23;12.60;;;10.63;;
8279;SDS011;8335;42.646;23.380;2023-06-14T06:43:50;18.13;;;10.75;;
8279;SDS011;8335;42.646;23.380;2023-06-14T06:46:17;13.45;;;10.82;;
8279;SDS011;8335;42.646;23.380;2023-06-14T06:48:45;18.88;;;11.70;;
8279;SDS011;8335;42.646;23.380;2023-06-14T06:51:12;14.35;;;10.85;;
8279;SDS011;8335;42.646;23.380;2023-06-14T06:53:41;15.20;;;11.48;;
8279;SDS011;8335;42.646;23.380;2023-06-14T06:56:09;13.77;;;11.40;;
8279;SDS011;8335;42.646;23.380;2023-06-14T06:58:35;16.73;;;11.95;;
8279;SDS011;8335;42.646;23.380;2023-06-14T07:01:02;14.57;;;10.85;;
8279;SDS011;8335;42.646;23.380;2023-06-14T07:03:29;18.08;;;10.60;;
8279;SDS011;8335;42.646;23.380;2023-06-14T07:05:57;19.42;;;11.70;;
8279;SDS011;8335;42.646;23.380;2023-06-14T07:08:24;17.67;;;11.75;;
8279;SDS011;8335;42.646;23.380;2023-06-14T07:10:52;14.05;;;11.48;;
8279;SDS011;8335;42.646;23.380;2023-06-14T07:13:18;17.15;;;10.70;;
8279;SDS011;8335;42.646;23.380;2023-06-14T07:15:45;14.68;;;11.63;;
8279;SDS011;8335;42.646;23.380;2023-06-14T07:18:12;19.33;;;11.30;;
8279;SDS011;8335;42.646;23.380;2023-06-14T07:20:39;13.82;;;10.05;;
8279;SDS011;8335;42.646;23.380;2023-06-14T07:23:08;15.90;;;11.38;;
8279;SDS011;8335;42.646;23.380;2023-06-14T07:25:34;16.27;;;11.38;;
8279;SDS011;8335;42.646;23.380;2023-06-14T07:28:01;15.55;;;10.80;;
8279;SDS011;8335;42.646;23.380;2023-06-14T07:30:28;18.20;;;10.07;;
8279;SDS011;8335;42.646;23.380;2023-06-14T07:32:55;18.58;;;12.77;;
8279;SDS011;8335;42.646;23.380;2023-06-14T07:35:22;20.90;;;16.65;;
8279;SDS011;8335;42.646;23.380;2023-06-14T07:37:49;20.65;;;13.82;;
8279;SDS011;8335;42.646;23.380;2023-06-14T07:40:17;23.83;;;15.90;;
8279;SDS011;8335;42.646;23.380;2023-06-14T07:42:44;14.10;;;10.02;;
8279;SDS011;8335;42.646;23.380;2023-06-14T07:45:11;10.85;;;8.73;;
8279;SDS011;8335;42.646;23.380;2023-06-14T07:47:39;16.00;;;9.60;;
8279;SDS011;8335;42.646;23.380;2023-06-14T07:50:06;11.48;;;9.15;;
8279;SDS011;8335;42.646;23.380;2023-06-14T07:52:34;10.32;;;8.68;;
8279;SDS011;8335;42.646;23.380;2023-06-14T07:55:00;11.35;;;8.68;;
8279;SDS011;8335;42.646;23.380;2023-06-14T07:57:29;11.15;;;9.15;;
8279;SDS011;8335;42.646;23.380;2023-06-14T07:59:55;11.98;;;8.63;;
8279;SDS011;8335;42.646;23.380;2023-06-14T08:02:22;13.48;;;9.05;;
8279;SDS011;8335;42.646;23.380;2023-06-14T08:04:49;10.63;;;9.38;;
8279;SDS011;8335;42.646;23.380;2023-06-14T08:07:16;15.45;;;8.95;;
8279;SDS011;8335;42.646;23.380;2023-06-14T08:09:42;10.73;;;8.63;;
8279;SDS011;8335;42.646;23.380;2023-06-14T08:12:09;9.25;;;8.23;;
8279;SDS011;8335;42.646;23.380;2023-06-14T08:14:38;10.95;;;8.43;;
8279;SDS011;8335;42.646;23.380;2023-06-14T08:17:05;12.75;;;9.40;;
8279;SDS011;8335;42.646;23.380;2023-06-14T08:19:32;12.85;;;9.85;;
8279;SDS011;8335;42.646;23.380;2023-06-14T08:21:59;13.63;;;10.80;;
8279;SDS011;8335;42.646;23.380;2023-06-14T08:24:26;14.82;;;10.52;;
8279;SDS011;8335;42.646;23.380;2023-06-14T08:26:53;12.25;;;9.25;;
8279;SDS011;8335;42.646;23.380;2023-06-14T08:29:20;12.50;;;9.07;;
8279;SDS011;8335;42.646;23.380;2023-06-14T08:31:48;13.43;;;8.48;;
8279;SDS011;8335;42.646;23.380;2023-06-14T08:34:14;14.63;;;8.57;;
8279;SDS011;8335;42.646;23.380;2023-06-14T08:36:41;11.85;;;8.35;;
8279;SDS011;8335;42.646;23.380;2023-06-14T08:39:08;11.40;;;8.13;;
8279;SDS011;8335;42.646;23.380;2023-06-14T08:41:35;14.35;;;8.82;;
8279;SDS011;8335;42.646;23.380;2023-06-14T08:44:02;13.15;;;8.65;;
8279;SDS011;8335;42.646;23.380;2023-06-14T08:46:30;13.23;;;10.00;;
8279;SDS011;8335;42.646;23.380;2023-06-14T08:49:00;11.70;;;9.10;;
8279;SDS011;8335;42.646;23.380;2023-06-14T08:51:30;12.55;;;8.40;;
8279;SDS011;8335;42.646;23.380;2023-06-14T08:53:59;10.30;;;9.10;;
8279;SDS011;8335;42.646;23.380;2023-06-14T08:56:27;13.00;;;8.82;;
8279;SDS011;8335;42.646;23.380;2023-06-14T08:58:55;10.48;;;8.35;;
8279;SDS011;8335;42.646;23.380;2023-06-14T09:01:22;11.18;;;8.13;;
8279;SDS011;8335;42.646;23.380;2023-06-14T09:03:50;11.35;;;8.30;;
8279;SDS011;8335;42.646;23.380;2023-06-14T09:06:18;11.18;;;7.68;;
8279;SDS011;8335;42.646;23.380;2023-06-14T09:08:48;10.20;;;8.38;;
8279;SDS011;8335;42.646;23.380;2023-06-14T09:11:16;19.08;;;13.70;;
8279;SDS011;8335;42.646;23.380;2023-06-14T09:13:44;13.95;;;11.32;;
8279;SDS011;8335;42.646;23.380;2023-06-14T09:16:11;9.38;;;7.85;;
8279;SDS011;8335;42.646;23.380;2023-06-14T09:18:39;9.65;;;8.52;;
8279;SDS011;8335;42.646;23.380;2023-06-14T09:21:08;9.57;;;7.72;;
8279;SDS011;8335;42.646;23.380;2023-06-14T09:23:38;9.27;;;7.30;;
8279;SDS011;8335;42.646;23.380;2023-06-14T09:26:09;8.80;;;7.70;;
8279;SDS011;8335;42.646;23.380;2023-06-14T09:28:37;9.65;;;7.55;;
8279;SDS011;8335;42.646;23.380;2023-06-14T09:31:08;10.30;;;8.00;;
8279;SDS011;8335;42.646;23.380;2023-06-14T09:33:35;10.30;;;8.60;;
8279;SDS011;8335;42.646;23.380;2023-06-14T09:36:03;10.70;;;8.95;;
8279;SDS011;8335;42.646;23.380;2023-06-14T09:38:30;11.52;;;8.65;;
8279;SDS011;8335;42.646;23.380;2023-06-14T09:40:58;8.90;;;7.85;;
8279;SDS011;8335;42.646;23.380;2023-06-14T09:43:25;9.93;;;8.90;;
8279;SDS011;8335;42.646;23.380;2023-06-14T09:45:52;10.45;;;8.18;;
8279;SDS011;8335;42.646;23.380;2023-06-14T09:48:20;10.38;;;8.02;;
8279;SDS011;8335;42.646;23.380;2023-06-14T09:50:47;12.50;;;7.75;;
8279;SDS011;8335;42.646;23.380;2023-06-14T09:53:16;12.95;;;9.25;;
8279;SDS011;8335;42.646;23.380;2023-06-14T09:55:47;15.50;;;11.30;;
8279;SDS011;8335;42.646;23.380;2023-06-14T09:58:17;11.48;;;8.55;;
8279;SDS011;8335;42.646;23.380;2023-06-14T10:00:49;9.88;;;8.13;;
8279;SDS011;8335;42.646;23.380;2023-06-14T10:03:19;11.77;;;8.68;;
8279;SDS011;8335;42.646;23.380;2023-06-14T10:05:48;9.13;;;8.07;;
8279;SDS011;8335;42.646;23.380;2023-06-14T10:08:18;11.48;;;9.30;;
8279;SDS011;8335;42.646;23.380;2023-06-14T10:10:45;10.63;;;8.45;;
8279;SDS011;8335;42.646;23.380;2023-06-14T10:13:13;10.35;;;9.25;;
8279;SDS011;8335;42.646;23.380;2023-06-14T10:15:42;9.98;;;8.98;;
8279;SDS011;8335;42.646;23.380;2023-06-14T10:18:19;12.02;;;8.82;;
8279;SDS011;8335;42.646;23.380;2023-06-14T10:20:58;11.68;;;8.55;;
8279;SDS011;8335;42.646;23.380;2023-06-14T10:23:35;9.13;;;8.00;;
8279;SDS011;8335;42.646;23.380;2023-06-14T10:26:06;18.63;;;13.93;;
8279;SDS011;8335;42.646;23.380;2023-06-14T10:28:33;11.98;;;8.93;;
8279;SDS011;8335;42.646;23.380;2023-06-14T10:31:05;9.95;;;8.18;;
8279;SDS011;8335;42.646;23.380;2023-06-14T10:33:33;11.93;;;9.65;;
8279;SDS011;8335;42.646;23.380;2023-06-14T10:36:06;10.75;;;8.95;;
8279;SDS011;8335;42.646;23.380;2023-06-14T10:38:45;10.43;;;8.70;;
8279;SDS011;8335;42.646;23.380;2023-06-14T10:41:12;10.93;;;9.27;;
8279;SDS011;8335;42.646;23.380;2023-06-14T10:43:39;8.52;;;7.63;;
8279;SDS011;8335;42.646;23.380;2023-06-14T10:46:17;8.98;;;7.97;;
8279;SDS011;8335;42.646;23.380;2023-06-14T10:48:48;9.27;;;7.50;;
8279;SDS011;8335;42.646;23.380;2023-06-14T10:51:15;9.95;;;7.53;;
8279;SDS011;8335;42.646;23.380;2023-06-14T10:53:45;11.60;;;8.23;;
8279;SDS011;8335;42.646;23.380;2023-06-14T10:56:23;9.73;;;8.15;;
8279;SDS011;8335;42.646;23.380;2023-06-14T10:58:53;8.95;;;7.20;;
8279;SDS011;8335;42.646;23.380;2023-06-14T11:01:28;10.23;;;7.68;;
8279;SDS011;8335;42.646;23.380;2023-06-14T11:04:06;8.57;;;7.30;;
8279;SDS011;8335;42.646;23.380;2023-06-14T11:09:32;7.63;;;6.82;;
8279;SDS011;8335;42.646;23.380;2023-06-14T11:12:20;10.30;;;7.03;;
8279;SDS011;8335;42.646;23.380;2023-06-14T11:14:48;7.32;;;6.63;;
8279;SDS011;8335;42.646;23.380;2023-06-14T11:17:17;9.05;;;7.47;;
8279;SDS011;8335;42.646;23.380;2023-06-14T11:19:43;8.48;;;6.97;;
8279;SDS011;8335;42.646;23.380;2023-06-14T11:22:10;7.95;;;7.15;;
8279;SDS011;8335;42.646;23.380;2023-06-14T11:24:39;7.95;;;6.65;;
8279;SDS011;8335;42.646;23.380;2023-06-14T11:27:06;6.88;;;6.13;;
8279;SDS011;8335;42.646;23.380;2023-06-14T11:29:33;11.05;;;7.10;;
8279;SDS011;8335;42.646;23.380;2023-06-14T11:32:01;11.18;;;7.03;;
8279;SDS011;8335;42.646;23.380;2023-06-14T11:34:30;8.23;;;6.53;;
8279;SDS011;8335;42.646;23.380;2023-06-14T11:36:57;8.75;;;6.40;;
8279;SDS011;8335;42.646;23.380;2023-06-14T11:39:24;9.18;;;6.85;;
8279;SDS011;8335;42.646;23.380;2023-06-14T11:41:52;8.05;;;6.57;;
8279;SDS011;8335;42.646;23.380;2023-06-14T11:44:20;9.05;;;6.65;;
8279;SDS011;8335;42.646;23.380;2023-06-14T11:46:47;7.00;;;6.05;;
8279;SDS011;8335;42.646;23.380;2023-06-14T11:49:15;8.68;;;6.68;;
8279;SDS011;8335;42.646;23.380;2023-06-14T11:51:43;8.63;;;6.63;;
8279;SDS011;8335;42.646;23.380;2023-06-14T11:54:10;7.25;;;6.25;;
8279;SDS011;8335;42.646;23.380;2023-06-14T11:56:38;6.85;;;5.85;;
8279;SDS011;8335;42.646;23.380;2023-06-14T11:59:05;9.15;;;6.30;;
8279;SDS011;8335;42.646;23.380;2023-06-14T12:01:32;10.40;;;6.07;;
8279;SDS011;8335;42.646;23.380;2023-06-14T12:04:02;7.72;;;5.97;;
8279;SDS011;8335;42.646;23.380;2023-06-14T12:06:29;8.02;;;5.93;;
8279;SDS011;8335;42.646;23.380;2023-06-14T12:09:04;9.27;;;6.25;;
8279;SDS011;8335;42.646;23.380;2023-06-14T12:11:38;6.93;;;6.22;;
8279;SDS011;8335;42.646;23.380;2023-06-14T12:14:05;6.80;;;5.63;;
8279;SDS011;8335;42.646;23.380;2023-06-14T12:16:33;7.65;;;6.00;;
8279;SDS011;8335;42.646;23.380;2023-06-14T12:19:00;6.20;;;5.60;;
8279;SDS011;8335;42.646;23.380;2023-06-14T12:21:35;8.15;;;5.90;;
8279;SDS011;8335;42.646;23.380;2023-06-14T12:24:07;6.30;;;5.70;;
8279;SDS011;8335;42.646;23.380;2023-06-14T12:26:37;8.20;;;5.70;;
8279;SDS011;8335;42.646;23.380;2023-06-14T12:29:04;8.77;;;6.40;;
8279;SDS011;8335;42.646;23.380;2023-06-14T12:31:32;8.38;;;6.15;;
8279;SDS011;8335;42.646;23.380;2023-06-14T12:33:59;6.50;;;5.80;;
8279;SDS011;8335;42.646;23.380;2023-06-14T12:36:25;9.63;;;6.30;;
8279;SDS011;8335;42.646;23.380;2023-06-14T12:38:52;9.30;;;6.53;;
8279;SDS011;8335;42.646;23.380;2023-06-14T12:41:21;15.63;;;11.85;;
8279;SDS011;8335;42.646;23.380;2023-06-14T12:43:47;8.73;;;6.90;;
8279;SDS011;8335;42.646;23.380;2023-06-14T12:46:14;11.73;;;7.95;;
8279;SDS011;8335;42.646;23.380;2023-06-14T12:48:41;6.82;;;5.93;;
8279;SDS011;8335;42.646;23.380;2023-06-14T12:51:08;7.47;;;5.60;;
8279;SDS011;8335;42.646;23.380;2023-06-14T12:53:34;6.10;;;5.10;;
8279;SDS011;8335;42.646;23.380;2023-06-14T12:56:01;5.57;;;5.07;;
8279;SDS011;8335;42.646;23.380;2023-06-14T12:58:29;7.28;;;5.47;;
8279;SDS011;8335;42.646;23.380;2023-06-14T13:00:56;7.53;;;5.30;;
8279;SDS011;8335;42.646;23.380;2023-06-14T13:03:23;8.85;;;6.07;;
8279;SDS011;8335;42.646;23.380;2023-06-14T13:05:50;7.85;;;6.00;;
8279;SDS011;8335;42.646;23.380;2023-06-14T13:08:16;8.82;;;6.57;;
8279;SDS011;8335;42.646;23.380;2023-06-14T13:10:44;10.68;;;6.53;;
8279;SDS011;8335;42.646;23.380;2023-06-14T13:13:11;10.95;;;7.20;;
8279;SDS011;8335;42.646;23.380;2023-06-14T13:15:40;11.73;;;7.13;;
8279;SDS011;8335;42.646;23.380;2023-06-14T13:18:07;10.25;;;6.97;;
8279;SDS011;8335;42.646;23.380;2023-06-14T13:20:33;9.65;;;7.28;;
8279;SDS011;8335;42.646;23.380;2023-06-14T13:23:00;11.75;;;7.28;;
8279;SDS011;8335;42.646;23.380;2023-06-14T13:25:29;9.20;;;7.00;;
8279;SDS011;8335;42.646;23.380;2023-06-14T13:27:56;12.00;;;7.55;;
8279;SDS011;8335;42.646;23.380;2023-06-14T13:30:22;12.82;;;7.45;;
8279;SDS011;8335;42.646;23.380;2023-06-14T13:32:51;9.10;;;7.03;;
8279;SDS011;8335;42.646;23.380;2023-06-14T13:35:18;9.13;;;6.65;;
8279;SDS011;8335;42.646;23.380;2023-06-14T13:37:45;8.30;;;6.75;;
8279;SDS011;8335;42.646;23.380;2023-06-14T13:40:12;8.40;;;7.28;;
8279;SDS011;8335;42.646;23.380;2023-06-14T13:42:39;9.95;;;7.45;;
8279;SDS011;8335;42.646;23.380;2023-06-14T13:45:06;10.45;;;8.20;;
8279;SDS011;8335;42.646;23.380;2023-06-14T13:47:34;9.65;;;7.72;;
8279;SDS011;8335;42.646;23.380;2023-06-14T13:50:02;11.10;;;7.45;;
8279;SDS011;8335;42.646;23.380;2023-06-14T13:52:30;9.93;;;6.65;;
8279;SDS011;8335;42.646;23.380;2023-06-14T13:54:56;9.70;;;6.90;;
8279;SDS011;8335;42.646;23.380;2023-06-14T13:57:23;10.02;;;7.05;;
8279;SDS011;8335;42.646;23.380;2023-06-14T13:59:51;7.22;;;6.25;;
8279;SDS011;8335;42.646;23.380;2023-06-14T14:02:18;9.90;;;6.93;;
8279;SDS011;8335;42.646;23.380;2023-06-14T14:04:46;7.65;;;6.38;;
8279;SDS011;8335;42.646;23.380;2023-06-14T14:07:19;8.25;;;6.18;;
8279;SDS011;8335;42.646;23.380;2023-06-14T14:09:47;7.90;;;6.45;;
8279;SDS011;8335;42.646;23.380;2023-06-14T14:12:14;7.95;;;7.05;;
8279;SDS011;8335;42.646;23.380;2023-06-14T14:14:41;8.75;;;6.35;;
8279;SDS011;8335;42.646;23.380;2023-06-14T14:17:07;8.68;;;7.07;;
8279;SDS011;8335;42.646;23.380;2023-06-14T14:19:34;9.55;;;7.28;;
8279;SDS011;8335;42.646;23.380;2023-06-14T14:22:01;24.80;;;15.80;;
8279;SDS011;8335;42.646;23.380;2023-06-14T14:24:30;9.75;;;7.22;;
8279;SDS011;8335;42.646;23.380;2023-06-14T14:26:56;7.13;;;6.25;;
8279;SDS011;8335;42.646;23.380;2023-06-14T14:29:25;9.10;;;6.32;;
8279;SDS011;8335;42.646;23.380;2023-06-14T14:31:54;9.00;;;6.70;;
8279;SDS011;8335;42.646;23.380;2023-06-14T14:34:21;8.88;;;7.18;;
8279;SDS011;8335;42.646;23.380;2023-06-14T14:36:48;7.90;;;6.32;;
8279;SDS011;8335;42.646;23.380;2023-06-14T14:39:14;8.13;;;6.97;;
8279;SDS011;8335;42.646;23.380;2023-06-14T14:41:43;8.70;;;6.38;;
8279;SDS011;8335;42.646;23.380;2023-06-14T14:44:09;9.60;;;6.85;;
8279;SDS011;8335;42.646;23.380;2023-06-14T14:46:36;8.05;;;7.00;;
8279;SDS011;8335;42.646;23.380;2023-06-14T14:49:04;9.85;;;6.93;;
8279;SDS011;8335;42.646;23.380;2023-06-14T14:51:30;13.88;;;7.38;;
8279;SDS011;8335;42.646;23.380;2023-06-14T14:53:57;10.70;;;6.68;;
8279;SDS011;8335;42.646;23.380;2023-06-14T14:56:24;10.23;;;7.40;;
8279;SDS011;8335;42.646;23.380;2023-06-14T14:58:52;10.80;;;7.70;;